Tilburg, Netherlands
Current Conditions -  °F | °C
As of 6:55 PM on Friday 28 Nov 2014 (Local Time) from EHGR Reporting Station
Haze Haze  
Wind Chill: 41°   Ceiling: 13000
Heat Index: 46°   Visibility: 5mi
Dew Point: 43°   Wind: 13mph
Humidity: 87%   Direction: 90°E
Pressure: 29.8"   Gusts: NA
Location:  51.58°N, 5.06°E
Report Text: EHGR 281755Z AUTO 09011KT 8000 BR OVC130 08/06 Q1009 BLU
Loading
Personal Weather Stations






























Interactive Weather Map New forecast layout! Learn more

10-Day Weather Forecast

Advertisements
Track Severe Weather on mobile